Time;durP1;ratioP1;P1;durP2;ratioP2;P2;SDS_P1;SDS_P2;PMS_P1;PMS_P2;Temp;Humidity;BMP_temperature;BMP_pressure;BME280_temperature;BME280_humidity;BME280_pressure;Samples;Min_cycle;Max_cycle;Signal;HPM_P1;HPM_P2
2021/12/20 00:00:14;;;;;;;11.23;5.15;;;10.70;99.90;;;10.95;83.05;102813.47;4994837;28;20042;-75
2021/12/20 00:02:47;;;;;;;10.25;4.90;;;10.70;99.90;;;10.98;83.07;102802.94;4995034;28;20062;-75
2021/12/20 00:05:16;;;;;;;8.07;4.80;;;10.70;99.90;;;10.95;82.87;102794.94;4994787;28;20053;-74
2021/12/20 00:07:46;;;;;;;11.05;5.72;;;10.70;99.90;;;10.95;82.58;102781.69;4994875;28;20038;-74
2021/12/20 00:10:16;;;;;;;8.20;4.43;;;10.70;99.90;;;10.81;82.73;102790.19;4994975;28;20047;-74
2021/12/20 00:12:45;;;;;;;9.80;5.22;;;10.60;99.90;;;10.41;82.76;102717.69;4994590;28;20050;-74
2021/12/20 00:15:13;;;;;;;8.77;4.68;;;10.60;99.90;;;10.99;82.74;102797.72;4994489;28;20452;-73
2021/12/20 00:17:42;;;;;;;8.68;4.75;;;10.70;99.90;;;10.95;82.67;102779.97;4994738;28;20494;-73
2021/12/20 00:20:11;;;;;;;7.57;4.60;;;10.70;99.90;;;10.78;82.56;102784.81;4994381;28;20042;-75
2021/12/20 00:22:40;;;;;;;12.17;5.30;;;10.60;99.90;;;10.95;82.58;102790.56;4976919;28;20058;-75
2021/12/20 00:25:11;;;;;;;10.07;4.90;;;10.70;99.90;;;10.95;82.88;102784.34;4994393;28;20492;-74
2021/12/20 00:27:39;;;;;;;;;;;10.70;99.90;;;11.00;82.46;102794.19;4994943;28;20043;-73
2021/12/20 00:30:11;;;;;;;9.25;4.60;;;10.80;99.90;;;10.88;82.23;102768.31;4976991;28;19973;-74
2021/12/20 00:32:41;;;;;;;10.25;5.00;;;10.70;99.90;;;11.07;81.93;102789.94;4994222;28;20046;-75
2021/12/20 00:35:12;;;;;;;10.07;4.50;;;10.80;99.90;;;10.99;81.84;102786.22;4993838;28;20512;-78
2021/12/20 00:40:28;;;;;;;12.25;5.05;;;10.80;99.90;;;10.89;81.41;102754.22;4994143;28;20051;-76
2021/12/20 00:42:59;;;;;;;11.90;5.18;;;10.90;99.90;;;10.97;81.14;102769.41;4994061;28;20554;-76
2021/12/20 00:45:30;;;;;;;12.20;5.22;;;10.80;99.90;;;11.08;81.18;102786.44;4994336;28;20485;-75
2021/12/20 00:48:00;;;;;;;10.63;5.22;;;10.80;99.90;;;11.08;80.85;102784.69;4994244;28;20097;-75
2021/12/20 00:50:29;;;;;;;10.43;4.45;;;10.80;99.90;;;11.13;80.47;102779.50;4993933;28;20048;-76
2021/12/20 00:52:58;;;;;;;10.68;5.10;;;10.80;99.90;;;10.97;80.58;102757.06;4993943;28;20042;-79
2021/12/20 00:55:30;;;;;;;12.10;4.95;;;10.80;99.90;;;11.11;80.62;102798.00;4993915;28;20081;-77
2021/12/20 00:58:00;;;;;;;11.77;5.35;;;10.80;99.90;;;11.03;80.47;102770.44;4994246;28;20066;-75
2021/12/20 01:00:31;;;;;;;13.73;5.37;;;10.80;99.90;;;11.13;80.36;102783.03;4993893;28;20451;-75
2021/12/20 01:03:00;;;;;;;14.85;5.60;;;10.90;99.90;;;11.09;79.92;102780.28;4976630;28;20061;-72
2021/12/20 01:05:29;;;;;;;13.30;5.78;;;10.90;99.90;;;11.11;79.64;102778.59;4993742;28;20447;-70
2021/12/20 01:08:02;;;;;;;18.50;5.53;;;10.80;99.90;;;10.63;79.41;102693.53;4993669;28;20042;-71
2021/12/20 01:10:34;;;;;;;15.95;5.68;;;10.90;99.90;;;11.08;79.22;102773.19;4993722;28;20097;-71
2021/12/20 01:13:04;;;;;;;23.13;6.53;;;10.80;99.90;;;11.06;78.90;102778.47;4993990;28;20101;-71
2021/12/20 01:15:37;;;;;;;16.80;6.28;;;10.80;99.90;;;11.07;78.95;102772.28;4993718;28;20497;-71
2021/12/20 01:18:08;;;;;;;14.70;6.35;;;10.80;99.90;;;11.05;78.47;102784.63;4993673;28;20058;-71
2021/12/20 01:20:37;;;;;;;15.95;5.95;;;10.90;99.90;;;10.85;77.73;102768.25;4993951;28;20047;-71
2021/12/20 01:23:06;;;;;;;18.95;6.32;;;10.70;99.90;;;10.93;77.92;102764.88;4993648;28;20038;-71
2021/12/20 01:25:36;;;;;;;20.77;6.13;;;10.70;99.90;;;10.50;77.52;102692.38;4992549;28;20047;-71
2021/12/20 01:28:06;;;;;;;20.17;6.60;;;10.70;99.90;;;10.85;77.34;102744.41;4993460;28;20046;-71
2021/12/20 01:30:36;;;;;;;16.70;6.60;;;10.80;99.90;;;10.99;77.16;102775.63;4993554;28;20046;-71
2021/12/20 01:33:07;;;;;;;14.10;5.43;;;10.70;99.90;;;10.98;77.31;102772.06;4993729;28;20401;-71
2021/12/20 01:35:37;;;;;;;21.63;6.40;;;10.80;99.90;;;10.99;77.11;102772.97;4996187;28;20066;-71
2021/12/20 01:38:06;;;;;;;22.00;6.38;;;10.70;99.90;;;10.80;77.03;102748.69;4997469;28;20046;-71
2021/12/20 01:40:39;;;;;;;18.40;6.25;;;10.80;99.90;;;10.98;76.68;102764.13;4997371;28;20109;-71
2021/12/20 01:43:11;;;;;;;20.20;6.45;;;10.70;99.90;;;11.03;76.82;102766.91;4997968;28;20096;-71
2021/12/20 01:45:39;;;;;;;20.48;6.20;;;10.80;99.90;;;11.02;76.52;102766.00;4997914;28;20077;-71
2021/12/20 01:48:10;;;;;;;21.20;6.38;;;10.70;99.90;;;11.01;76.51;102769.53;4997165;28;20049;-71
2021/12/20 01:50:49;;;;;;;18.98;6.80;;;10.80;99.90;;;11.07;75.80;102772.28;4997575;28;20105;-71
2021/12/20 01:53:23;;;;;;;20.05;6.30;;;10.80;99.90;;;11.03;75.84;102772.19;4997230;28;20570;-71
2021/12/20 01:55:55;;;;;;;19.17;6.68;;;10.80;99.90;;;10.97;75.10;102772.94;4997444;28;20451;-71
2021/12/20 01:58:25;;;;;;;21.30;6.82;;;10.80;99.90;;;11.05;74.53;102778.44;4997127;28;20104;-71
2021/12/20 02:03:44;;;;;;;24.27;6.47;;;10.70;99.90;;;11.01;74.17;102769.53;4995974;28;20432;-71
2021/12/20 02:06:21;;;;;;;24.10;6.65;;;10.70;99.90;;;11.01;73.67;102772.16;4996939;28;20046;-71
2021/12/20 02:08:49;;;;;;;26.83;7.07;;;10.70;99.90;;;11.01;73.19;102776.56;4997266;28;20046;-71
2021/12/20 02:11:21;;;;;;;25.50;6.68;;;10.70;99.90;;;10.99;73.18;102775.63;4996858;28;20137;-71
2021/12/20 02:13:50;;;;;;;19.10;6.93;;;10.70;99.90;;;10.93;73.23;102765.78;4996851;28;20100;-71
2021/12/20 02:16:19;;;;;;;22.08;6.63;;;10.70;99.90;;;11.03;72.93;102767.81;4997279;28;20457;-71
2021/12/20 02:18:48;;;;;;;21.67;6.38;;;10.80;99.90;;;10.98;72.41;102757.94;4996891;28;20116;-72
2021/12/20 02:21:18;;;;;;;22.60;6.85;;;10.70;99.90;;;10.97;71.99;102751.75;4996700;28;20487;-71
2021/12/20 02:23:48;;;;;;;25.75;7.50;;;10.70;99.90;;;10.95;71.39;102753.47;4995720;28;20452;-71
2021/12/20 02:26:18;;;;;;;29.45;7.50;;;10.70;99.90;;;10.97;71.29;102751.75;4979360;28;20068;-71
2021/12/20 02:28:50;;;;;;;28.55;7.82;;;10.70;99.90;;;10.96;70.73;102747.31;4996794;28;20093;-71
2021/12/20 02:37:15;;;;;;;25.92;7.60;;;10.70;99.90;;;10.96;70.38;102754.34;4996720;28;20050;-71
2021/12/20 02:39:44;;;;;;;26.33;7.28;;;10.70;99.90;;;10.97;70.13;102754.41;4996356;28;20046;-71
2021/12/20 02:42:18;;;;;;;22.92;6.85;;;10.70;99.90;;;10.99;70.53;102752.69;4996308;28;20403;-71
2021/12/20 02:44:52;;;;;;;23.38;6.85;;;10.70;99.90;;;10.96;70.26;102751.69;4996323;28;20127;-71
2021/12/20 02:47:28;;;;;;;27.67;8.13;;;10.70;99.90;;;10.85;69.60;102735.56;4995457;28;20038;-71
2021/12/20 02:49:58;;;;;;;29.15;7.55;;;10.70;99.90;;;10.66;69.17;102696.28;4996466;28;20046;-71
2021/12/20 02:52:28;;;;;;;24.00;7.18;;;10.70;99.90;;;10.97;69.14;102741.16;4996085;28;20117;-71
2021/12/20 02:54:56;;;;;;;27.80;6.75;;;10.70;99.90;;;10.98;69.38;102742.03;4996607;28;20054;-72
2021/12/20 02:57:25;;;;;;;31.40;8.38;;;10.70;99.90;;;10.97;69.85;102740.28;4995972;28;20049;-71
2021/12/20 02:59:53;;;;;;;32.80;7.72;;;10.80;99.90;;;10.88;69.15;102740.94;4996204;28;20046;-71
2021/12/20 03:02:23;;;;;;;31.33;7.53;;;10.70;99.90;;;10.89;68.72;102737.44;4995926;28;20469;-71
2021/12/20 03:04:52;;;;;;;25.33;6.43;;;10.60;99.90;;;10.92;69.50;102740.16;4995895;28;20137;-71
2021/12/20 03:07:25;;;;;;;31.75;8.07;;;10.70;99.90;;;10.75;68.62;102750.34;4995881;28;20050;-71
2021/12/20 03:10:01;;;;;;;26.85;7.60;;;10.60;99.90;;;10.87;68.77;102733.84;4995996;28;20043;-71
2021/12/20 03:12:32;;;;;;;33.10;7.80;;;10.70;99.90;;;10.69;69.08;102706.94;4995801;28;20042;-71
2021/12/20 03:15:03;;;;;;;;;;;10.70;99.90;;;10.88;68.85;102732.97;4996196;28;20100;-71
2021/12/20 03:17:32;;;;;;;30.08;7.57;;;10.70;99.90;;;10.93;68.70;102738.41;4978517;28;19979;-71
2021/12/20 03:20:00;;;;;;;24.50;7.18;;;10.70;99.90;;;10.72;68.84;102692.00;4995511;28;20070;-71
2021/12/20 03:22:29;;;;;;;23.95;7.55;;;10.70;99.90;;;10.98;68.83;102727.06;4995808;28;20046;-71
2021/12/20 03:24:58;;;;;;;31.20;7.25;;;10.70;99.90;;;10.95;68.60;102728.75;4994438;28;20050;-72
2021/12/20 03:27:27;;;;;;;26.30;7.97;;;10.70;99.90;;;10.83;68.52;102705.53;4977899;28;20078;-71
2021/12/20 03:29:55;;;;;;;20.50;7.53;;;10.80;99.90;;;10.96;68.33;102734.06;4995595;28;20089;-71
2021/12/20 03:32:24;;;;;;;26.77;7.30;;;10.70;99.90;;;11.00;68.39;102728.00;4995389;28;20078;-72
2021/12/20 03:34:52;;;;;;;30.65;8.35;;;10.80;99.90;;;10.97;68.41;102727.94;4995248;28;20050;-71
2021/12/20 03:37:21;;;;;;;25.75;7.93;;;10.70;99.90;;;10.93;68.63;102733.09;4995672;28;20089;-71
2021/12/20 03:39:49;;;;;;;31.15;7.50;;;10.70;99.90;;;10.94;68.16;102729.63;4978042;28;20046;-71
2021/12/20 03:42:20;;;;;;;29.52;7.78;;;10.70;99.90;;;10.92;68.33;102723.38;4995176;28;20105;-71
2021/12/20 03:44:48;;;;;;;26.95;7.60;;;10.70;99.90;;;10.92;67.65;102729.56;4994170;28;20085;-71
2021/12/20 03:47:16;;;;;;;27.90;7.70;;;10.70;99.90;;;10.95;68.02;102729.66;4995075;28;20049;-71
2021/12/20 03:49:45;;;;;;;28.88;8.27;;;10.70;99.90;;;10.91;67.71;102741.03;4993912;28;20488;-71
2021/12/20 03:52:14;;;;;;;24.05;6.95;;;10.70;99.90;;;10.89;67.49;102740.09;4995221;28;20038;-71
2021/12/20 03:54:42;;;;;;;25.05;6.57;;;10.70;99.90;;;10.89;67.81;102732.16;4995182;28;20109;-71
2021/12/20 03:57:11;;;;;;;27.30;8.10;;;10.60;99.90;;;10.89;67.22;102733.06;4994720;28;20108;-71
2021/12/20 03:59:40;;;;;;;26.67;6.88;;;10.60;99.90;;;10.90;67.18;102740.13;4994057;28;20093;-71
2021/12/20 04:02:09;;;;;;;32.35;8.07;;;10.70;99.90;;;10.85;67.18;102733.84;4995050;28;20053;-71
2021/12/20 04:04:38;;;;;;;24.40;6.60;;;10.60;99.90;;;10.87;67.79;102733.84;4994708;28;20053;-71
2021/12/20 04:07:06;;;;;;;28.73;8.90;;;10.70;99.90;;;10.85;68.01;102730.28;4994663;28;20050;-71
2021/12/20 04:09:35;;;;;;;24.10;7.55;;;10.60;99.90;;;10.85;68.24;102724.97;4994532;28;20547;-71
2021/12/20 04:12:04;;;;;;;32.15;7.72;;;10.60;99.90;;;10.82;67.67;102730.19;4994875;28;20042;-71
2021/12/20 04:14:33;;;;;;;30.00;8.40;;;10.60;99.90;;;10.74;67.12;102723.84;4994573;28;20456;-71
2021/12/20 04:17:03;;;;;;;32.60;7.45;;;10.60;99.90;;;10.72;67.55;102721.13;4994533;28;20081;-71
2021/12/20 04:19:32;;;;;;;29.90;8.27;;;10.60;99.90;;;10.72;67.73;102725.56;4994490;28;20092;-71
2021/12/20 04:22:00;;;;;;;26.42;7.18;;;10.50;99.90;;;10.58;68.05;102700.50;4994654;28;20038;-71
2021/12/20 04:24:28;;;;;;;28.08;7.10;;;10.50;99.90;;;10.77;68.18;102726.53;4994396;28;20077;-71
2021/12/20 04:26:57;;;;;;;21.40;6.88;;;10.50;99.90;;;10.73;67.94;102724.69;4994345;28;20066;-71
2021/12/20 04:29:27;;;;;;;31.75;7.75;;;10.60;99.90;;;10.66;67.85;102718.34;4994469;28;20046;-71
2021/12/20 04:31:56;;;;;;;30.80;8.27;;;10.60;99.90;;;10.75;67.93;102744.13;4994298;28;20484;-71
2021/12/20 04:34:26;;;;;;;33.33;7.75;;;10.60;99.90;;;10.74;67.89;102737.06;4994275;28;20172;-71
2021/12/20 04:36:54;;;;;;;26.73;6.60;;;10.60;99.90;;;10.75;68.01;102733.56;4992885;28;20504;-71
2021/12/20 04:39:27;;;;;;;28.00;7.47;;;10.50;99.90;;;10.74;67.46;102743.25;4994692;28;20133;-71
2021/12/20 04:41:55;;;;;;;25.52;7.32;;;10.50;99.90;;;10.65;67.50;102720.94;4994161;28;20093;-71
2021/12/20 04:44:24;;;;;;;30.30;7.65;;;10.50;99.90;;;10.71;66.88;102737.88;4994057;28;20129;-71
2021/12/20 04:46:52;;;;;;;31.55;7.78;;;10.50;99.90;;;10.74;67.14;102731.78;4994016;28;20046;-71
2021/12/20 04:49:24;;;;;;;26.92;7.60;;;10.50;99.90;;;10.79;67.33;102735.41;4994207;28;20034;-71
2021/12/20 04:51:55;;;;;;;25.77;7.10;;;10.60;99.90;;;10.81;67.22;102731.06;4994056;28;20042;-71
2021/12/20 04:54:25;;;;;;;32.47;7.93;;;10.60;99.90;;;10.81;67.29;102742.56;4994258;28;20100;-71
2021/12/20 04:56:54;;;;;;;23.67;6.20;;;10.60;99.90;;;10.80;66.88;102737.22;4994410;28;20101;-71
2021/12/20 04:59:22;;;;;;;30.02;7.53;;;10.60;99.90;;;10.75;66.22;102725.63;4994132;28;20069;-71
2021/12/20 05:01:50;;;;;;;28.95;7.28;;;10.60;99.90;;;10.68;66.20;102731.63;4994078;28;20042;-71
2021/12/20 05:04:19;;;;;;;34.63;7.97;;;10.50;99.90;;;10.68;66.52;102728.97;4994085;28;20124;-71
2021/12/20 05:06:49;;;;;;;29.02;7.32;;;10.50;99.90;;;10.68;65.80;102728.97;4993988;28;20468;-69
2021/12/20 05:09:19;;;;;;;25.73;7.72;;;10.50;99.90;;;10.56;65.12;102715.44;4993540;28;20076;-72
2021/12/20 05:11:50;;;;;;;31.63;7.32;;;10.40;99.90;;;10.62;64.46;102724.44;4993772;28;20074;-71
2021/12/20 05:14:19;;;;;;;;;;;10.40;99.90;;;10.52;63.29;102727.69;4994436;28;20042;-73
2021/12/20 05:16:47;;;;;;;34.42;7.97;;;10.40;99.90;;;10.31;62.67;102718.31;4993628;28;19922;-73
2021/12/20 05:19:15;;;;;;;25.50;7.05;;;10.30;99.90;;;10.43;62.87;102724.78;4994184;28;20125;-74
2021/12/20 05:21:44;;;;;;;29.02;7.57;;;10.30;99.90;;;10.44;62.27;102723.03;4993613;28;20055;-72
2021/12/20 05:24:12;;;;;;;22.67;6.82;;;10.30;99.90;;;10.37;62.42;102729.03;4993439;28;20085;-73
2021/12/20 05:26:42;;;;;;;23.52;7.40;;;10.20;99.90;;;10.42;62.51;102732.69;4993564;28;20049;-73
2021/12/20 05:29:10;;;;;;;20.75;6.65;;;10.20;99.90;;;10.43;63.13;102739.78;4993754;28;20070;-73
2021/12/20 05:31:38;;;;;;;24.13;7.55;;;10.30;99.90;;;10.38;62.32;102746.69;4993781;28;20451;-72
2021/12/20 05:34:07;;;;;;;26.58;7.68;;;10.30;99.90;;;10.31;62.29;102719.22;4993509;28;20038;-73
2021/12/20 05:36:35;;;;;;;18.02;7.18;;;10.20;99.90;;;10.38;62.30;102730.81;4993644;28;20132;-73
2021/12/20 05:39:04;;;;;;;26.15;6.60;;;10.30;99.90;;;10.43;62.01;102729.22;4993503;28;20050;-73
2021/12/20 05:41:33;;;;;;;18.80;5.90;;;10.30;99.90;;;10.44;61.80;102741.56;4992461;28;20575;-73
2021/12/20 05:44:03;;;;;;;31.33;6.97;;;10.30;99.90;;;10.47;62.02;102747.81;4993681;28;20107;-72
2021/12/20 05:46:32;;;;;;;22.42;6.40;;;10.30;99.90;;;10.48;62.23;102736.41;4993971;28;20050;-73
2021/12/20 05:49:00;;;;;;;26.92;8.05;;;10.40;99.90;;;10.44;61.84;102725.69;4993375;28;20194;-73
2021/12/20 05:51:29;;;;;;;23.75;6.40;;;10.40;99.90;;;10.51;61.62;102732.94;4993477;28;20050;-73
2021/12/20 05:53:58;;;;;;;26.35;6.90;;;10.40;99.90;;;10.47;61.20;102744.31;4993252;28;20062;-73
2021/12/20 05:56:26;;;;;;;19.70;6.22;;;10.30;99.90;;;10.50;61.93;102742.63;4993571;28;20054;-72
2021/12/20 05:58:54;;;;;;;27.52;6.53;;;10.30;99.90;;;10.43;61.14;102738.00;4993801;28;20046;-73
2021/12/20 06:01:24;;;;;;;25.13;6.95;;;10.30;99.90;;;10.45;61.17;102744.25;4993227;28;20492;-73
2021/12/20 06:03:53;;;;;;;16.80;6.20;;;10.30;99.90;;;10.52;61.17;102740.03;4993524;28;20042;-72
2021/12/20 06:06:21;;;;;;;23.48;6.30;;;10.30;99.90;;;10.54;61.27;102752.44;4993445;28;20714;-73
2021/12/20 06:08:49;;;;;;;20.77;6.35;;;10.40;99.90;;;10.48;60.55;102746.09;4993438;28;20042;-73
2021/12/20 06:11:18;;;;;;;26.98;6.70;;;10.30;99.90;;;10.44;59.94;102741.56;4993025;28;20133;-73
2021/12/20 06:13:46;;;;;;;22.85;6.75;;;10.30;99.90;;;10.47;60.37;102746.94;4993351;28;20097;-73
2021/12/20 06:16:15;;;;;;;21.73;6.85;;;10.30;99.90;;;10.39;59.81;102737.91;4993131;28;20073;-73
2021/12/20 06:18:45;;;;;;;23.25;6.32;;;10.30;99.90;;;10.44;59.92;102749.50;4993075;28;20043;-73
2021/12/20 06:21:13;;;;;;;19.30;6.43;;;10.30;99.90;;;10.45;59.84;102748.66;4993522;28;20591;-73
2021/12/20 06:23:41;;;;;;;20.95;6.22;;;10.30;99.90;;;10.48;59.91;102747.00;4996642;28;20096;-73
2021/12/20 06:26:10;;;;;;;24.42;6.80;;;10.30;99.90;;;10.52;60.30;102746.22;4996582;28;20122;-73
2021/12/20 06:28:38;;;;;;;20.70;6.38;;;10.40;99.90;;;10.50;59.78;102747.03;4996756;28;20043;-73
2021/12/20 06:31:07;;;;;;;22.08;7.03;;;10.40;99.90;;;10.53;59.83;102752.41;4996349;28;20132;-73
2021/12/20 06:33:35;;;;;;;25.08;6.95;;;10.40;99.90;;;10.55;60.33;102743.63;4996473;28;20070;-73
2021/12/20 06:36:05;;;;;;;18.58;6.60;;;10.40;99.90;;;10.60;60.52;102746.41;4994987;28;20073;-73
2021/12/20 06:38:35;;;;;;;17.58;6.30;;;10.40;99.90;;;10.62;60.44;102747.34;4996381;28;20077;-73
2021/12/20 06:41:03;;;;;;;25.05;7.32;;;10.40;99.90;;;10.63;59.81;102752.66;4996306;28;20526;-73
2021/12/20 06:43:32;;;;;;;19.00;7.03;;;10.40;99.90;;;10.69;60.25;102757.22;4996325;28;20043;-73
2021/12/20 06:46:00;;;;;;;22.10;7.05;;;10.50;99.90;;;10.66;59.63;102752.75;4996765;28;20072;-73
2021/12/20 06:48:29;;;;;;;21.05;6.57;;;10.40;99.90;;;10.71;60.18;102750.22;4996465;28;20053;-73
2021/12/20 06:50:57;;;;;;;24.70;6.10;;;10.50;99.90;;;10.69;59.30;102757.22;4996257;28;20044;-73
2021/12/20 06:53:27;;;;;;;16.55;5.85;;;10.50;99.90;;;10.69;59.32;102765.16;4996321;28;20108;-73
2021/12/20 06:55:56;;;;;;;17.45;6.28;;;10.50;99.90;;;10.69;59.50;102765.16;4995964;28;20496;-73
2021/12/20 06:58:24;;;;;;;22.30;6.72;;;10.50;99.90;;;10.74;59.49;102763.53;4995876;28;20046;-73
2021/12/20 07:00:53;;;;;;;20.67;6.80;;;10.50;99.90;;;10.59;58.59;102734.91;4994847;28;20054;-73
2021/12/20 07:03:23;;;;;;;16.95;5.90;;;10.60;99.90;;;10.71;58.27;102756.41;4995634;28;20448;-72
2021/12/20 07:05:52;;;;;;;23.88;6.43;;;10.60;99.90;;;10.75;58.76;102754.72;4995790;28;20562;-73
2021/12/20 07:08:20;;;;;;;18.75;6.13;;;10.60;99.90;;;10.71;58.99;102745.81;4995785;28;20046;-73
2021/12/20 07:10:50;;;;;;;24.90;6.15;;;10.60;99.90;;;10.35;58.71;102746.63;4978488;28;20451;-73
2021/12/20 07:13:19;;;;;;;19.92;7.32;;;10.30;99.90;;;10.47;59.03;102753.13;4995961;28;20046;-73
2021/12/20 07:15:47;;;;;;;26.05;6.50;;;10.30;99.90;;;10.47;59.02;102744.31;4995543;28;20038;-73
2021/12/20 07:18:16;;;;;;;17.20;6.15;;;10.30;99.90;;;10.56;59.55;102747.19;4996035;28;20054;-74
2021/12/20 07:20:44;;;;;;;21.33;6.57;;;10.40;99.90;;;10.61;60.34;102749.09;4995519;28;20055;-73
2021/12/20 07:23:13;;;;;;;21.90;6.80;;;10.40;99.90;;;10.65;60.63;102748.31;4994461;28;20435;-73
2021/12/20 07:25:42;;;;;;;18.95;5.70;;;10.40;99.90;;;10.66;60.58;102754.50;4995439;28;20042;-73
2021/12/20 07:28:11;;;;;;;23.77;6.47;;;10.40;99.90;;;10.66;60.11;102757.16;4995568;28;20440;-73
2021/12/20 07:30:40;;;;;;;16.30;5.65;;;10.40;99.90;;;10.65;59.87;102747.41;4995143;28;20038;-73
2021/12/20 07:33:08;;;;;;;15.98;6.20;;;10.40;99.90;;;10.69;60.40;102746.63;4995356;28;20447;-75
2021/12/20 07:35:37;;;;;;;14.60;5.90;;;10.50;99.90;;;10.34;60.47;102676.03;4995015;28;20050;-75
2021/12/20 07:38:10;;;;;;;24.15;7.28;;;10.50;99.90;;;10.77;60.66;102760.97;4995190;28;20042;-74
2021/12/20 07:40:39;;;;;;;16.55;6.35;;;10.50;99.90;;;10.76;60.75;102762.69;4995383;28;20456;-74
2021/12/20 07:43:07;;;;;;;17.60;5.90;;;10.50;99.90;;;10.76;61.00;102761.81;4995256;28;20076;-74
2021/12/20 07:45:37;;;;;;;16.48;6.22;;;10.50;99.90;;;10.78;60.08;102762.75;4995337;28;20046;-71
2021/12/20 07:48:06;;;;;;;19.83;5.70;;;10.50;99.90;;;10.76;60.27;102767.13;4994992;28;20108;-71
2021/12/20 07:50:35;;;;;;;19.02;6.57;;;10.50;99.90;;;10.73;60.18;102767.94;4995432;28;20043;-71
2021/12/20 07:53:03;;;;;;;14.00;6.22;;;10.50;99.90;;;10.79;60.89;102772.47;4994944;28;20121;-70
2021/12/20 07:55:32;;;;;;;19.35;6.63;;;10.60;99.90;;;10.75;61.14;102773.25;4994663;28;20043;-71
2021/12/20 07:58:00;;;;;;;19.75;6.78;;;10.60;99.90;;;10.78;60.75;102766.28;4994655;28;20121;-73
2021/12/20 08:00:29;;;;;;;17.10;5.88;;;10.60;99.90;;;10.77;60.69;102768.91;4994830;28;20050;-72
2021/12/20 08:02:59;;;;;;;13.75;6.45;;;10.50;99.90;;;10.80;60.75;102766.34;4994992;28;20038;-73
2021/12/20 08:05:29;;;;;;;20.30;6.20;;;10.50;99.90;;;10.77;60.37;102766.25;4994817;28;20046;-71
2021/12/20 08:07:57;;;;;;;17.80;6.20;;;10.50;99.90;;;10.71;60.59;102769.66;4994734;28;20046;-72
2021/12/20 08:10:28;;;;;;;20.55;6.35;;;10.50;99.90;;;10.71;60.50;102777.59;4994996;28;20040;-69
2021/12/20 08:12:57;;;;;;;21.33;6.20;;;10.50;99.90;;;10.68;60.62;102772.19;4994859;28;20081;-70
2021/12/20 08:15:26;;;;;;;27.05;6.78;;;10.50;99.90;;;10.80;60.38;102775.16;4994524;28;20093;-70
2021/12/20 08:17:56;;;;;;;18.83;5.95;;;10.50;99.90;;;10.79;60.95;102783.06;4993516;28;20058;-70
2021/12/20 08:20:26;;;;;;;22.42;6.32;;;10.60;99.90;;;10.80;60.98;102782.22;4994991;28;20046;-69
2021/12/20 08:22:54;;;;;;;21.05;6.35;;;10.50;99.90;;;10.75;61.30;102781.19;4994626;28;20068;-70
2021/12/20 08:25:23;;;;;;;22.88;6.25;;;10.50;99.90;;;10.75;61.73;102775.91;4994410;28;20066;-69
2021/12/20 08:27:52;;;;;;;18.08;6.22;;;10.50;99.90;;;10.78;61.83;102776.00;4994592;28;20149;-69
2021/12/20 08:30:22;;;;;;;20.77;5.90;;;10.60;99.90;;;10.03;62.04;102714.88;4994797;28;20096;-69
2021/12/20 08:32:51;;;;;;;21.48;6.05;;;10.50;99.90;;;10.82;61.35;102781.38;4994229;28;20050;-69
2021/12/20 08:35:20;;;;;;;21.98;7.10;;;10.60;99.90;;;10.77;61.09;102780.38;4993999;28;20046;-69
2021/12/20 08:37:53;;;;;;;20.40;6.45;;;10.50;99.90;;;10.72;60.42;102789.94;4993056;28;20065;-70
2021/12/20 08:40:23;;;;;;;19.80;6.35;;;10.50;99.90;;;10.46;60.81;102763.66;4994089;28;20042;-69
2021/12/20 08:42:51;;;;;;;18.17;6.18;;;10.50;99.90;;;10.61;60.39;102787.88;4994040;28;20129;-71
2021/12/20 08:45:20;;;;;;;18.13;5.93;;;10.40;99.90;;;10.48;60.81;102768.16;4993791;28;20038;-69
2021/12/20 08:47:52;;;;;;;16.52;6.28;;;10.40;99.90;;;10.57;60.81;102780.72;4994087;28;20452;-69
2021/12/20 08:50:23;;;;;;;15.88;5.85;;;10.40;99.90;;;10.63;60.27;102791.47;4993034;28;20050;-79
2021/12/20 08:52:54;;;;;;;;;;;10.40;99.90;;;10.56;60.72;102789.53;4994345;28;20101;-72
2021/12/20 08:55:24;;;;;;;14.45;5.75;;;10.40;99.90;;;10.54;60.64;102788.59;4993958;28;19922;-81
2021/12/20 08:57:53;;;;;;;16.25;5.68;;;10.40;99.90;;;10.46;60.81;102796.31;4994147;28;20046;-69
2021/12/20 09:00:26;;;;;;;16.15;5.57;;;10.30;99.90;;;10.48;60.82;102801.66;4994428;28;20043;-72
2021/12/20 09:02:57;;;;;;;17.35;5.53;;;10.30;99.90;;;10.42;61.29;102786.50;4992998;28;20065;-67
2021/12/20 09:05:27;;;;;;;17.48;5.60;;;10.30;99.90;;;10.50;61.13;102794.66;4993982;28;20092;-68
2021/12/20 09:08:00;;;;;;;15.27;5.68;;;10.30;99.90;;;10.47;60.71;102799.88;4994123;28;20042;-68
2021/12/20 09:10:32;;;;;;;15.70;5.57;;;10.30;99.90;;;10.14;61.21;102805.13;4993967;28;20086;-69
2021/12/20 09:13:03;;;;;;;22.45;6.93;;;10.20;99.90;;;9.29;63.03;102793.66;4993591;28;20046;-69
2021/12/20 09:15:31;;;;;;;;;;;9.50;99.90;;;9.24;64.27;102782.06;4994167;28;20097;-71
2021/12/20 09:18:00;;;;;;;19.25;5.78;;;9.30;99.90;;;9.53;64.08;102802.38;4976421;28;20355;-71
2021/12/20 09:20:30;;;;;;;15.63;5.95;;;9.40;99.90;;;9.56;64.38;102754.91;4993827;28;20046;-71
2021/12/20 09:23:05;;;;;;;18.45;5.05;;;9.50;99.90;;;9.53;64.11;102799.72;4993396;28;20116;-71
2021/12/20 09:25:35;;;;;;;19.00;5.82;;;9.50;99.90;;;9.34;65.08;102796.47;4992368;28;20054;-67
2021/12/20 09:28:09;;;;;;;19.63;5.15;;;9.30;99.90;;;9.49;65.15;102773.16;4993808;28;20051;-69
2021/12/20 09:30:39;;;;;;;14.82;5.53;;;9.40;99.90;;;9.72;65.21;102791.50;4993513;28;20046;-69
2021/12/20 09:33:08;;;;;;;17.02;5.22;;;9.50;99.90;;;9.87;65.51;102804.31;4993492;28;20050;-73
2021/12/20 09:35:38;;;;;;;15.95;6.03;;;9.70;99.90;;;9.94;64.93;102825.66;4993373;28;20046;-71
2021/12/20 09:38:11;;;;;;;;;;;9.70;99.90;;;10.03;64.94;102791.56;4994386;28;20077;-71
2021/12/20 09:40:42;;;;;;;15.85;5.57;;;9.90;99.90;;;9.91;65.05;102764.75;4993364;28;19926;-76
2021/12/20 09:43:13;;;;;;;18.15;6.10;;;9.90;99.90;;;8.25;64.73;102512.44;4993244;28;20050;-70
2021/12/20 09:45:45;;;;;;;23.27;6.35;;;9.80;99.90;;;10.07;64.68;102804.84;4993621;28;20054;-68
2021/12/20 09:48:14;;;;;;;21.08;7.80;;;9.90;99.90;;;9.87;65.25;102796.38;4993469;28;20053;-68
2021/12/20 09:50:43;;;;;;;21.48;6.65;;;9.80;99.90;;;9.81;65.30;102806.75;4992424;28;20081;-67
2021/12/20 09:53:14;;;;;;;16.58;5.63;;;9.70;99.90;;;9.85;66.21;102806.00;4993559;28;20049;-68
2021/12/20 09:55:46;;;;;;;21.48;6.65;;;9.70;99.90;;;9.77;65.81;102805.78;4975977;28;20062;-70
2021/12/20 09:58:14;;;;;;;18.33;5.90;;;9.70;99.90;;;9.52;65.20;102813.81;4997139;28;20113;-71
2021/12/20 10:00:43;;;;;;;20.83;6.53;;;9.60;99.90;;;9.02;66.69;102806.88;4997006;28;20097;-70
2021/12/20 10:03:13;;;;;;;21.38;7.25;;;9.20;99.90;;;9.16;67.98;102801.16;4996988;28;20133;-69
2021/12/20 10:05:41;;;;;;;15.85;5.80;;;9.10;99.90;;;9.45;67.55;102817.09;4996721;28;20054;-69
2021/12/20 10:08:15;;;;;;;20.58;6.60;;;9.20;99.90;;;9.63;67.58;102808.84;4996955;28;20061;-69
2021/12/20 10:10:47;;;;;;;19.83;6.40;;;9.40;99.90;;;9.77;66.80;102811.06;4996812;28;20055;-70
2021/12/20 10:13:25;;;;;;;20.60;6.53;;;9.60;99.90;;;9.34;67.49;102813.22;4996731;28;20038;-70
2021/12/20 10:15:54;;;;;;;25.88;7.80;;;9.40;99.90;;;9.58;67.75;102813.97;4995745;28;20043;-69
2021/12/20 10:18:23;;;;;;;19.65;6.78;;;9.40;99.90;;;8.88;68.38;102794.09;4996528;28;20057;-69
2021/12/20 10:20:54;;;;;;;24.88;6.63;;;9.00;99.90;;;8.96;69.45;102814.59;4995588;28;20388;-70
2021/12/20 10:23:27;;;;;;;24.27;6.90;;;8.90;99.90;;;9.02;70.41;102812.16;4996630;28;20046;-70
2021/12/20 10:25:59;;;;;;;23.92;6.22;;;8.80;99.90;;;8.91;69.04;102812.66;4996823;28;20050;-70
2021/12/20 10:28:35;;;;;;;23.15;7.28;;;8.90;99.90;;;9.12;68.61;102823.91;4996576;28;20278;-69
2021/12/20 10:31:07;;;;;;;22.95;7.03;;;9.00;99.90;;;9.01;68.86;102814.75;4996508;28;20042;-69